Time;durP1;ratioP1;P1;durP2;ratioP2;P2;SDS_P1;SDS_P2;PMS_P1;PMS_P2;Temp;Humidity;BMP_temperature;BMP_pressure;BME280_temperature;BME280_humidity;BME280_pressure;Samples;Min_cycle;Max_cycle;Signal;HPM_P1;HPM_P2
2021/08/09 00:01:03;;;;;;;5.80;3.38;;;23.40;64.60;;;;;;5109101;28;20506;-62
2021/08/09 00:03:30;;;;;;;5.03;3.30;;;23.20;64.80;;;;;;5109926;28;20044;-62
2021/08/09 00:05:56;;;;;;;3.88;3.28;;;23.10;65.70;;;;;;5111737;28;20047;-62
2021/08/09 00:08:22;;;;;;;4.78;3.05;;;23.00;66.60;;;;;;5112085;28;20031;-63
2021/08/09 00:10:49;;;;;;;4.35;3.17;;;23.00;67.00;;;;;;5112248;28;20031;-63
2021/08/09 00:13:16;;;;;;;4.97;3.38;;;22.90;67.30;;;;;;5111703;28;20028;-63
2021/08/09 00:15:42;;;;;;;5.82;3.20;;;22.90;66.80;;;;;;5111977;28;20038;-62
2021/08/09 00:18:09;;;;;;;5.95;3.58;;;22.80;66.20;;;;;;5111150;28;20032;-62
2021/08/09 00:20:35;;;;;;;6.00;3.70;;;22.70;66.30;;;;;;5112081;28;20028;-63
2021/08/09 00:23:02;;;;;;;5.88;3.42;;;22.60;66.70;;;;;;5111816;28;20030;-61
2021/08/09 00:25:28;;;;;;;6.35;3.70;;;22.60;67.10;;;;;;5111779;28;20036;-62
2021/08/09 00:27:55;;;;;;;6.63;4.32;;;22.50;67.80;;;;;;5111676;28;20034;-63
2021/08/09 00:30:21;;;;;;;6.07;3.55;;;22.50;68.90;;;;;;5111324;28;20027;-64
2021/08/09 00:32:48;;;;;;;5.97;3.72;;;22.40;69.70;;;;;;5111651;28;20028;-63
2021/08/09 00:35:16;;;;;;;5.43;3.38;;;22.40;70.40;;;;;;5110414;28;20030;-62
2021/08/09 00:37:42;;;;;;;6.18;3.08;;;22.30;70.80;;;;;;5109400;28;20514;-63
2021/08/09 00:40:10;;;;;;;4.60;3.58;;;22.30;71.30;;;;;;5093531;28;20432;-62
2021/08/09 00:42:37;;;;;;;6.28;3.60;;;22.20;71.60;;;;;;5109345;28;20040;-62
2021/08/09 00:45:05;;;;;;;6.07;3.72;;;22.20;71.80;;;;;;5090536;28;20047;-62
2021/08/09 00:47:32;;;;;;;4.32;3.22;;;22.20;72.10;;;;;;5109800;28;20050;-62
2021/08/09 00:50:00;;;;;;;4.88;3.20;;;22.20;72.50;;;;;;5110299;28;20394;-62
2021/08/09 00:52:28;;;;;;;5.38;3.42;;;22.20;72.80;;;;;;5109245;28;20043;-63
2021/08/09 00:54:56;;;;;;;4.47;3.35;;;22.20;72.90;;;;;;5111237;28;20105;-63
2021/08/09 00:57:23;;;;;;;4.07;3.08;;;22.20;73.10;;;;;;5109953;28;20043;-63
2021/08/09 00:59:50;;;;;;;4.82;3.08;;;22.20;73.30;;;;;;5110575;28;20032;-63
2021/08/09 01:02:19;;;;;;;5.65;3.65;;;22.20;73.40;;;;;;5092099;28;20483;-62
2021/08/09 01:04:46;;;;;;;5.68;3.58;;;22.10;73.70;;;;;;5109729;28;20046;-62
2021/08/09 01:07:14;;;;;;;5.90;4.20;;;22.10;74.00;;;;;;5111409;28;20035;-62
2021/08/09 01:09:47;;;;;;;4.10;3.00;;;22.00;74.00;;;;;;5111077;28;20040;-62
2021/08/09 01:12:27;;;;;;;5.35;3.03;;;22.00;74.10;;;;;;5111068;28;20035;-63
2021/08/09 01:15:23;;;;;;;4.93;2.97;;;22.00;74.30;;;;;;5112716;28;20032;-62
2021/08/09 01:17:54;;;;;;;6.97;3.40;;;22.00;74.60;;;;;;5094433;28;20027;-62
2021/08/09 01:20:49;;;;;;;5.22;3.38;;;22.00;74.90;;;;;;5111511;28;20028;-63
2021/08/09 01:23:25;;;;;;;4.25;3.13;;;21.90;75.50;;;;;;5111510;28;20503;-62
2021/08/09 01:26:19;;;;;;;4.13;2.85;;;21.90;75.70;;;;;;5111308;28;20027;-62
2021/08/09 01:28:47;;;;;;;4.28;3.45;;;21.80;75.80;;;;;;5112569;28;20046;-62
2021/08/09 01:31:15;;;;;;;4.38;3.47;;;21.80;75.90;;;;;;5110754;28;20052;-62
2021/08/09 01:33:44;;;;;;;5.78;3.80;;;21.70;76.10;;;;;;5111333;28;20472;-62
2021/08/09 01:36:12;;;;;;;6.00;3.40;;;21.70;76.30;;;;;;5111530;28;20031;-63
2021/08/09 01:38:46;;;;;;;4.90;3.10;;;21.60;76.50;;;;;;5111570;28;20054;-62
2021/08/09 01:41:13;;;;;;;5.35;3.40;;;21.60;76.80;;;;;;5115003;28;20035;-63
2021/08/09 01:43:40;;;;;;;5.82;3.72;;;21.60;76.90;;;;;;5097698;28;20490;-63
2021/08/09 01:46:07;;;;;;;5.07;3.60;;;21.60;76.80;;;;;;5115112;28;20058;-62
2021/08/09 01:48:35;;;;;;;5.03;3.55;;;21.60;76.70;;;;;;5114488;28;20020;-63
2021/08/09 01:51:02;;;;;;;5.57;3.75;;;21.50;76.70;;;;;;5115963;28;20379;-62
2021/08/09 01:53:31;;;;;;;6.40;3.25;;;21.40;77.10;;;;;;5114436;28;20038;-62
2021/08/09 01:55:58;;;;;;;8.85;3.83;;;21.30;77.80;;;;;;5114479;28;20035;-62
2021/08/09 01:58:27;;;;;;;7.07;3.75;;;21.30;78.20;;;;;;5114550;28;20047;-62
2021/08/09 02:00:54;;;;;;;4.85;3.72;;;21.30;78.30;;;;;;5114734;28;20058;-62
2021/08/09 02:03:21;;;;;;;4.05;3.17;;;21.30;78.20;;;;;;5114486;28;20036;-62
2021/08/09 02:05:47;;;;;;;5.88;3.17;;;21.30;77.90;;;;;;5114507;28;20383;-62
2021/08/09 02:08:15;;;;;;;5.15;3.90;;;21.20;77.20;;;;;;5114134;28;20039;-63
2021/08/09 02:10:47;;;;;;;7.50;4.18;;;21.30;76.10;;;;;;5114091;28;20047;-61
2021/08/09 02:13:40;;;;;;;6.95;3.75;;;21.20;75.50;;;;;;5113730;28;20035;-62
2021/08/09 02:16:20;;;;;;;6.68;4.13;;;21.10;75.80;;;;;;5114168;28;20039;-62
2021/08/09 02:19:04;;;;;;;8.07;3.58;;;21.10;76.10;;;;;;5113727;28;20047;-62
2021/08/09 02:21:41;;;;;;;5.95;3.33;;;21.10;75.80;;;;;;5114906;28;20052;-63
2021/08/09 02:24:13;;;;;;;7.55;5.00;;;21.10;76.00;;;;;;5114399;28;20492;-63
2021/08/09 02:26:47;;;;;;;7.25;4.47;;;21.00;76.40;;;;;;5114304;28;20031;-63
2021/08/09 02:29:18;;;;;;;5.93;3.90;;;21.00;76.40;;;;;;5113400;28;20483;-61
2021/08/09 02:31:46;;;;;;;7.75;4.07;;;21.00;76.70;;;;;;5113645;28;20063;-63
2021/08/09 02:34:17;;;;;;;5.80;3.85;;;21.00;76.90;;;;;;5113717;28;20420;-62
2021/08/09 02:36:44;;;;;;;5.10;3.45;;;21.00;77.50;;;;;;5112711;28;20510;-63
2021/08/09 02:39:11;;;;;;;6.25;3.60;;;21.00;77.90;;;;;;5114589;28;20027;-63
2021/08/09 02:41:39;;;;;;;7.70;3.67;;;21.00;78.30;;;;;;5113732;28;20470;-63
2021/08/09 02:44:07;;;;;;;5.78;3.60;;;21.00;78.70;;;;;;5096740;28;20032;-63
2021/08/09 02:46:35;;;;;;;6.40;3.53;;;21.00;78.90;;;;;;5113349;28;20028;-63
2021/08/09 02:49:02;;;;;;;7.97;4.63;;;20.90;79.60;;;;;;5113603;28;20035;-62
2021/08/09 02:51:30;;;;;;;4.85;3.60;;;21.00;79.20;;;;;;5096527;28;20134;-62
2021/08/09 02:53:57;;;;;;;6.72;3.72;;;20.90;78.60;;;;;;5113322;28;20038;-62
2021/08/09 02:56:25;;;;;;;4.68;3.42;;;20.90;78.60;;;;;;5113129;28;20039;-62
2021/08/09 02:58:52;;;;;;;4.70;3.60;;;20.90;78.20;;;;;;5113126;28;20027;-62
2021/08/09 03:01:19;;;;;;;7.45;3.80;;;20.90;78.20;;;;;;5111940;28;20062;-63
2021/08/09 03:03:54;;;;;;;6.10;3.22;;;20.90;79.00;;;;;;5112360;28;20050;-63
2021/08/09 03:06:21;;;;;;;6.88;3.67;;;20.90;79.70;;;;;;5113154;28;20039;-62
2021/08/09 03:08:48;;;;;;;5.75;3.75;;;20.90;79.70;;;;;;5114048;28;20042;-62
2021/08/09 03:11:15;;;;;;;8.73;3.97;;;20.80;79.60;;;;;;5112701;28;20042;-62
2021/08/09 03:13:46;;;;;;;7.15;3.78;;;20.80;79.40;;;;;;5113427;28;20039;-63
2021/08/09 03:16:13;;;;;;;7.18;3.85;;;20.80;79.70;;;;;;5113005;28;20051;-61
2021/08/09 03:18:39;;;;;;;6.07;3.70;;;20.80;80.10;;;;;;5114455;28;20028;-62
2021/08/09 03:21:08;;;;;;;9.70;4.40;;;20.80;80.50;;;;;;5112681;28;20036;-62
2021/08/09 03:23:36;;;;;;;7.00;3.45;;;20.80;81.10;;;;;;5111317;28;20039;-61
2021/08/09 03:26:04;;;;;;;6.60;3.67;;;20.90;81.60;;;;;;5112548;28;20043;-61
2021/08/09 03:28:31;;;;;;;5.20;3.72;;;20.90;80.90;;;;;;5112743;28;20378;-62
2021/08/09 03:30:58;;;;;;;5.95;3.65;;;20.90;80.30;;;;;;5112386;28;20056;-63
2021/08/09 03:33:24;;;;;;;5.30;3.85;;;20.80;79.60;;;;;;5113698;28;20031;-62
2021/08/09 03:35:51;;;;;;;6.38;3.97;;;20.70;79.90;;;;;;5112586;28;20042;-62
2021/08/09 03:38:17;;;;;;;5.60;4.00;;;20.70;79.70;;;;;;5111617;28;20044;-62
2021/08/09 03:40:44;;;;;;;5.05;3.47;;;20.70;79.70;;;;;;5114098;28;20467;-63
2021/08/09 03:43:10;;;;;;;7.22;3.65;;;20.70;80.40;;;;;;5112517;28;20480;-62
2021/08/09 03:45:37;;;;;;;5.00;3.65;;;20.70;80.60;;;;;;5112342;28;20035;-62
2021/08/09 03:48:06;;;;;;;6.22;3.80;;;20.70;79.70;;;;;;5112074;28;20035;-62
2021/08/09 03:50:33;;;;;;;6.28;4.20;;;20.60;79.70;;;;;;5112201;28;20059;-62
2021/08/09 03:52:59;;;;;;;6.63;3.83;;;20.60;80.10;;;;;;5111838;28;20030;-61
2021/08/09 03:55:26;;;;;;;5.90;4.03;;;20.60;79.50;;;;;;5111075;28;20166;-62
2021/08/09 03:57:52;;;;;;;6.85;4.40;;;20.60;79.90;;;;;;5111517;28;20044;-61
2021/08/09 04:00:19;;;;;;;5.68;4.00;;;20.60;79.10;;;;;;5113384;28;20039;-62
2021/08/09 04:02:48;;;;;;;5.63;3.90;;;20.50;79.20;;;;;;5111875;28;20031;-62
2021/08/09 04:05:30;;;;;;;7.45;4.00;;;20.50;80.00;;;;;;5096389;28;20048;-63
2021/08/09 04:07:57;;;;;;;6.30;4.35;;;20.50;80.70;;;;;;5113138;28;20020;-63
2021/08/09 04:10:23;;;;;;;7.53;3.70;;;20.50;81.30;;;;;;5112062;28;20032;-63
2021/08/09 04:12:50;;;;;;;6.40;3.70;;;20.50;81.00;;;;;;5111855;28;20047;-62
2021/08/09 04:15:17;;;;;;;5.90;3.83;;;20.50;81.10;;;;;;5111863;28;20061;-61
2021/08/09 04:17:44;;;;;;;6.68;3.92;;;20.60;81.80;;;;;;5113137;28;20032;-62
2021/08/09 04:20:12;;;;;;;5.13;3.60;;;20.50;81.50;;;;;;5110385;28;20055;-62
2021/08/09 04:22:39;;;;;;;5.20;3.55;;;20.50;80.80;;;;;;5112003;28;20451;-63
2021/08/09 04:25:06;;;;;;;8.43;3.75;;;20.50;80.80;;;;;;5111759;28;20034;-63
2021/08/09 04:27:33;;;;;;;7.95;3.90;;;20.50;81.10;;;;;;5111821;28;20387;-63
2021/08/09 04:30:00;;;;;;;6.93;3.88;;;20.40;81.50;;;;;;5112681;28;20388;-63
2021/08/09 04:32:40;;;;;;;4.22;3.38;;;20.40;81.90;;;;;;5111420;28;20051;-63
2021/08/09 04:35:10;;;;;;;7.60;3.67;;;20.40;81.90;;;;;;5111605;28;20051;-62
2021/08/09 04:37:38;;;;;;;4.82;3.67;;;20.40;81.90;;;;;;5111642;28;20394;-62
2021/08/09 04:40:07;;;;;;;6.25;3.72;;;20.40;81.70;;;;;;5111670;28;20028;-62
2021/08/09 04:42:34;;;;;;;5.20;3.67;;;20.40;81.60;;;;;;5111632;28;20398;-62
2021/08/09 04:45:01;;;;;;;6.20;4.13;;;20.40;81.60;;;;;;5111375;28;20475;-62
2021/08/09 04:47:27;;;;;;;6.22;4.07;;;20.40;81.50;;;;;;5111362;28;20048;-63
2021/08/09 04:49:54;;;;;;;7.45;4.00;;;20.40;81.40;;;;;;5093841;28;20395;-62
2021/08/09 04:52:20;;;;;;;7.50;4.20;;;20.40;81.30;;;;;;5111656;28;20035;-63
2021/08/09 04:54:47;;;;;;;5.85;4.10;;;20.50;81.50;;;;;;5112746;28;20035;-63
2021/08/09 04:57:14;;;;;;;8.63;3.70;;;20.50;81.30;;;;;;5112756;28;20028;-62
2021/08/09 04:59:40;;;;;;;6.28;4.05;;;20.50;81.10;;;;;;5111310;28;20383;-62
2021/08/09 05:02:07;;;;;;;7.80;4.07;;;20.50;80.90;;;;;;5111503;28;20032;-62
2021/08/09 05:04:34;;;;;;;8.48;4.15;;;20.50;81.00;;;;;;5111523;28;20036;-62
2021/08/09 05:07:03;;;;;;;6.82;3.90;;;20.50;81.20;;;;;;5111257;28;20380;-62
2021/08/09 05:09:32;;;;;;;8.68;3.80;;;20.50;81.20;;;;;;5110956;28;20032;-63
2021/08/09 05:11:59;;;;;;;5.53;3.47;;;20.50;81.10;;;;;;5110802;28;20024;-62
2021/08/09 05:14:25;;;;;;;7.00;3.67;;;20.50;81.00;;;;;;5113064;28;20050;-62
2021/08/09 05:16:52;;;;;;;7.65;3.75;;;20.50;80.80;;;;;;5115351;28;20032;-62
2021/08/09 05:19:19;;;;;;;5.25;3.65;;;20.60;81.00;;;;;;5116757;28;20043;-62
2021/08/09 05:21:45;;;;;;;6.70;4.10;;;20.60;81.20;;;;;;5114943;28;20027;-62
2021/08/09 05:24:12;;;;;;;7.53;3.80;;;20.60;81.20;;;;;;5116196;28;20380;-62
2021/08/09 05:26:39;;;;;;;6.28;3.88;;;20.60;81.40;;;;;;5116246;28;20024;-61
2021/08/09 05:29:06;;;;;;;5.20;3.92;;;20.60;81.60;;;;;;5114740;28;20498;-63
2021/08/09 05:31:33;;;;;;;7.15;3.55;;;20.60;81.80;;;;;;5114811;28;20499;-61
2021/08/09 05:34:00;;;;;;;8.45;3.72;;;20.70;81.70;;;;;;5115880;28;20060;-62
2021/08/09 05:36:28;;;;;;;7.97;3.92;;;20.70;81.40;;;;;;5116121;28;20035;-62
2021/08/09 05:38:55;;;;;;;6.30;3.72;;;20.80;81.30;;;;;;5115695;28;20024;-62
2021/08/09 05:41:23;;;;;;;6.80;4.55;;;20.80;81.30;;;;;;5114617;28;20048;-61
2021/08/09 05:43:52;;;;;;;10.43;4.20;;;20.90;81.40;;;;;;5113518;28;20039;-61
2021/08/09 05:46:20;;;;;;;4.68;3.33;;;20.90;81.30;;;;;;5114799;28;20031;-61
2021/08/09 05:48:47;;;;;;;5.22;3.88;;;20.80;81.50;;;;;;5113798;28;20510;-61
2021/08/09 05:51:14;;;;;;;8.50;4.13;;;20.90;81.50;;;;;;5114567;28;20533;-62
2021/08/09 05:53:40;;;;;;;8.65;4.00;;;20.90;81.10;;;;;;5114027;28;20062;-62
2021/08/09 05:56:08;;;;;;;7.65;4.30;;;20.90;80.90;;;;;;5097469;28;20040;-62
2021/08/09 05:58:47;;;;;;;7.55;4.30;;;20.90;80.10;;;;;;5114395;28;20039;-62
2021/08/09 06:01:14;;;;;;;7.72;4.05;;;20.90;80.20;;;;;;5113960;28;20039;-62
2021/08/09 06:03:41;;;;;;;7.47;4.82;;;21.00;79.80;;;;;;5114357;28;20047;-62
2021/08/09 06:06:15;;;;;;;7.55;3.60;;;21.00;79.90;;;;;;5114174;28;20035;-62
2021/08/09 06:08:43;;;;;;;7.53;4.30;;;21.10;79.90;;;;;;5114086;28;20380;-63
2021/08/09 06:11:10;;;;;;;6.70;3.88;;;21.10;78.50;;;;;;5113626;28;20036;-62
2021/08/09 06:13:37;;;;;;;9.50;4.45;;;21.10;76.50;;;;;;5114155;28;20032;-62
2021/08/09 06:16:04;;;;;;;10.10;3.95;;;21.20;74.60;;;;;;5115249;28;20043;-62
2021/08/09 06:18:35;;;;;;;6.55;4.45;;;22.40;70.20;;;;;;5114040;28;20040;-61
2021/08/09 06:21:04;;;;;;;7.10;4.45;;;24.20;61.00;;;;;;5113490;28;20495;-61
2021/08/09 06:23:31;;;;;;;7.35;4.07;;;25.60;56.30;;;;;;5113738;28;20055;-62
2021/08/09 06:25:58;;;;;;;6.53;4.10;;;26.50;52.80;;;;;;5112602;28;20383;-62
2021/08/09 06:28:28;;;;;;;8.18;3.90;;;27.10;50.60;;;;;;5114001;28;20036;-62
2021/08/09 06:30:57;;;;;;;9.10;4.00;;;27.50;49.20;;;;;;5113404;28;20047;-62
2021/08/09 06:33:24;;;;;;;7.03;3.72;;;27.00;49.20;;;;;;5113696;28;20486;-62
2021/08/09 06:35:52;;;;;;;6.78;4.57;;;25.90;52.00;;;;;;5114937;28;20043;-62
2021/08/09 06:38:20;;;;;;;8.77;3.80;;;25.00;54.80;;;;;;5113647;28;20028;-62
2021/08/09 06:40:47;;;;;;;6.93;3.38;;;24.40;56.50;;;;;;5112389;28;20047;-64
2021/08/09 06:43:13;;;;;;;6.35;3.50;;;24.10;57.50;;;;;;5113662;28;20128;-64
2021/08/09 06:45:47;;;;;;;11.25;3.70;;;23.80;58.60;;;;;;5112093;28;20255;-63
2021/08/09 06:48:14;;;;;;;6.43;3.85;;;23.70;59.30;;;;;;5096258;28;20039;-63
2021/08/09 06:50:42;;;;;;;9.88;4.18;;;23.60;59.50;;;;;;5128480;27;20031;-61
2021/08/09 06:53:09;;;;;;;6.60;3.80;;;23.70;59.80;;;;;;5131532;27;20027;-61
2021/08/09 06:55:38;;;;;;;6.57;4.25;;;23.80;59.30;;;;;;5131170;27;20042;-62
2021/08/09 06:58:05;;;;;;;6.85;3.33;;;23.90;58.90;;;;;;5132959;27;20034;-62
2021/08/09 07:00:31;;;;;;;5.97;3.38;;;23.90;58.80;;;;;;5118074;27;20050;-63
2021/08/09 07:03:05;;;;;;;5.18;2.90;;;24.10;57.70;;;;;;5111710;27;20035;-61
2021/08/09 07:05:42;;;;;;;8.43;3.35;;;24.10;56.60;;;;;;5110015;28;20038;-62
2021/08/09 07:08:10;;;;;;;4.90;3.00;;;24.20;56.00;;;;;;5108442;28;20027;-62
2021/08/09 07:10:36;;;;;;;7.03;3.67;;;24.20;54.90;;;;;;5112108;28;20023;-62
2021/08/09 07:13:03;;;;;;;7.10;3.30;;;24.30;54.60;;;;;;5110283;28;20043;-62
2021/08/09 07:15:30;;;;;;;5.68;3.45;;;24.30;54.10;;;;;;5110291;28;20036;-60
2021/08/09 07:17:57;;;;;;;17.30;10.27;;;24.40;54.10;;;;;;5111688;28;20043;-60
2021/08/09 07:20:24;;;;;;;8.27;5.32;;;24.50;53.90;;;;;;5112888;28;20030;-61
2021/08/09 07:22:50;;;;;;;5.82;3.13;;;24.60;53.60;;;;;;5113003;28;20043;-61
2021/08/09 07:25:18;;;;;;;5.03;3.45;;;24.60;53.00;;;;;;5095252;28;20137;-60
2021/08/09 07:27:48;;;;;;;6.53;3.33;;;24.70;52.50;;;;;;5095379;28;20048;-60
2021/08/09 07:30:15;;;;;;;5.60;3.50;;;24.80;52.70;;;;;;5111921;28;20257;-61
2021/08/09 07:32:44;;;;;;;6.35;3.47;;;24.90;51.10;;;;;;5112185;28;20154;-61
2021/08/09 07:35:11;;;;;;;6.30;3.03;;;24.90;50.60;;;;;;5112546;28;20091;-61
2021/08/09 07:37:38;;;;;;;5.40;3.28;;;25.00;49.10;;;;;;5112209;28;20042;-61
2021/08/09 07:40:06;;;;;;;6.82;3.00;;;24.90;48.00;;;;;;5111770;28;20376;-61
2021/08/09 07:42:32;;;;;;;5.93;3.83;;;25.00;48.80;;;;;;5112146;28;20467;-61
2021/08/09 07:44:59;;;;;;;7.65;2.92;;;25.10;48.90;;;;;;5111787;28;20545;-61
2021/08/09 07:47:28;;;;;;;6.18;3.38;;;25.20;49.30;;;;;;5111266;28;20456;-61
2021/08/09 07:49:55;;;;;;;5.97;3.20;;;25.20;50.00;;;;;;5111790;28;20045;-60
2021/08/09 07:52:21;;;;;;;6.45;3.30;;;25.20;50.60;;;;;;5109797;28;20024;-61
2021/08/09 07:54:49;;;;;;;6.40;3.53;;;25.30;51.80;;;;;;5110715;28;20043;-61
2021/08/09 07:57:16;;;;;;;6.85;3.40;;;25.40;52.00;;;;;;5110826;28;20043;-60
2021/08/09 07:59:45;;;;;;;4.38;3.22;;;25.40;52.30;;;;;;5110004;28;20055;-61
2021/08/09 08:02:13;;;;;;;6.82;3.72;;;25.50;53.90;;;;;;5110866;28;20088;-60
2021/08/09 08:04:42;;;;;;;5.35;3.40;;;25.60;54.40;;;;;;5111394;28;20038;-60
2021/08/09 08:07:09;;;;;;;7.43;3.77;;;25.60;55.10;;;;;;5111498;28;20032;-60
2021/08/09 08:09:36;;;;;;;4.82;3.38;;;25.60;55.10;;;;;;5111766;28;20709;-60
2021/08/09 08:12:04;;;;;;;6.40;3.40;;;25.60;54.90;;;;;;5111941;28;20039;-60
2021/08/09 08:14:31;;;;;;;5.53;3.22;;;25.70;55.30;;;;;;5111446;28;20040;-60
2021/08/09 08:16:59;;;;;;;7.50;3.72;;;25.90;55.70;;;;;;5111254;28;20035;-59
2021/08/09 08:19:25;;;;;;;6.38;4.32;;;26.00;55.20;;;;;;5113043;28;20402;-60
2021/08/09 08:21:52;;;;;;;5.88;3.40;;;26.00;54.40;;;;;;5111371;28;20031;-60
2021/08/09 08:24:19;;;;;;;4.75;3.28;;;26.10;53.80;;;;;;5111571;28;20047;-60
2021/08/09 08:26:47;;;;;;;6.95;3.20;;;26.10;53.70;;;;;;5111582;28;20042;-60
2021/08/09 08:29:13;;;;;;;5.97;3.60;;;26.10;52.80;;;;;;5111422;28;20376;-60
2021/08/09 08:31:42;;;;;;;6.93;3.72;;;26.10;52.30;;;;;;5111322;28;20043;-60
2021/08/09 08:34:08;;;;;;;7.03;3.38;;;26.20;51.80;;;;;;5111505;28;20040;-60
2021/08/09 08:36:35;;;;;;;5.07;3.53;;;26.20;52.10;;;;;;5110463;28;20043;-60
2021/08/09 08:39:03;;;;;;;4.68;2.88;;;26.20;51.60;;;;;;5111420;28;20134;-60
2021/08/09 08:41:34;;;;;;;6.63;3.88;;;26.30;51.70;;;;;;5110822;28;20479;-61
2021/08/09 08:44:01;;;;;;;6.93;3.92;;;26.30;51.80;;;;;;5111083;28;20031;-59
2021/08/09 08:46:29;;;;;;;5.25;3.45;;;26.40;52.20;;;;;;5111221;28;20040;-60
2021/08/09 08:48:58;;;;;;;5.43;3.22;;;26.50;51.80;;;;;;5115977;28;20371;-61
2021/08/09 08:51:25;;;;;;;6.90;3.38;;;26.50;51.60;;;;;;5115163;28;20036;-60
2021/08/09 08:53:54;;;;;;;5.03;2.80;;;26.50;51.70;;;;;;5115487;28;20094;-60
2021/08/09 08:56:21;;;;;;;5.22;3.20;;;26.40;51.80;;;;;;5116711;28;20043;-60
2021/08/09 08:58:47;;;;;;;6.40;3.60;;;26.40;52.20;;;;;;5116007;28;20490;-60
2021/08/09 09:01:38;;;;;;;5.65;3.33;;;26.50;52.60;;;;;;5116593;28;20019;-60
2021/08/09 09:04:24;;;;;;;3.67;2.67;;;26.60;52.30;;;;;;5116041;28;20062;-60
2021/08/09 09:07:02;;;;;;;5.15;3.28;;;26.70;52.80;;;;;;5116307;28;20031;-60
2021/08/09 09:09:34;;;;;;;4.80;3.35;;;26.70;52.40;;;;;;5097620;28;20475;-59
2021/08/09 09:12:15;;;;;;;6.70;3.30;;;26.60;52.50;;;;;;5116321;28;20027;-60
2021/08/09 09:14:42;;;;;;;6.35;3.38;;;26.50;53.00;;;;;;5115905;28;20062;-60
2021/08/09 09:17:09;;;;;;;4.72;3.13;;;26.60;53.00;;;;;;5116210;28;20036;-60
2021/08/09 09:19:40;;;;;;;4.60;3.13;;;26.70;53.10;;;;;;5114117;28;20055;-60
2021/08/09 09:22:21;;;;;;;7.20;4.60;;;26.80;53.10;;;;;;5115135;28;20040;-60
2021/08/09 09:24:51;;;;;;;4.40;2.85;;;26.90;52.40;;;;;;5116162;28;20028;-60
2021/08/09 09:27:34;;;;;;;5.68;3.85;;;26.90;51.80;;;;;;5116697;28;20027;-61
2021/08/09 09:30:30;;;;;;;4.93;3.75;;;26.90;51.40;;;;;;5116329;28;20050;-60
2021/08/09 09:33:08;;;;;;;4.55;2.92;;;27.00;51.80;;;;;;5115929;28;20031;-61
2021/08/09 09:35:37;;;;;;;4.55;3.22;;;27.10;51.80;;;;;;5115631;28;20040;-61
2021/08/09 09:38:04;;;;;;;6.20;3.38;;;27.10;50.50;;;;;;5115841;28;20383;-60
2021/08/09 09:40:39;;;;;;;5.75;4.03;;;27.20;50.90;;;;;;5116288;27;20047;-60
2021/08/09 09:43:21;;;;;;;7.72;3.72;;;27.20;51.10;;;;;;5115685;28;20028;-60
2021/08/09 09:45:56;;;;;;;7.95;4.22;;;27.30;51.70;;;;;;5115189;28;20046;-59
2021/08/09 09:48:37;;;;;;;5.53;3.50;;;27.20;51.80;;;;;;5115566;28;20349;-60
2021/08/09 09:51:12;;;;;;;12.88;3.88;;;27.10;52.30;;;;;;5115498;28;20030;-61
2021/08/09 09:53:40;;;;;;;7.63;3.97;;;27.20;52.60;;;;;;5114810;28;20047;-60
2021/08/09 09:56:07;;;;;;;4.95;3.38;;;27.20;52.90;;;;;;5115590;28;20376;-60
2021/08/09 09:58:35;;;;;;;5.78;4.03;;;27.20;53.00;;;;;;5113384;28;20050;-61
2021/08/09 10:01:04;;;;;;;5.47;3.60;;;27.30;53.10;;;;;;5114825;28;20038;-60
2021/08/09 10:03:34;;;;;;;6.18;4.20;;;27.30;52.90;;;;;;5115687;27;20043;-61
2021/08/09 10:06:03;;;;;;;5.68;3.55;;;27.30;52.70;;;;;;5115227;28;20349;-61
2021/08/09 10:08:37;;;;;;;9.63;3.55;;;27.30;52.70;;;;;;5114656;28;20403;-61
2021/08/09 10:11:05;;;;;;;5.88;3.40;;;27.30;51.00;;;;;;5115691;28;20371;-61
2021/08/09 10:13:33;;;;;;;4.95;3.85;;;27.10;51.90;;;;;;5115374;28;20039;-61
2021/08/09 10:16:05;;;;;;;4.63;3.45;;;27.10;51.80;;;;;;5115010;28;20390;-61
2021/08/09 10:18:34;;;;;;;8.32;5.47;;;27.20;52.00;;;;;;5115107;28;20035;-61
2021/08/09 10:21:03;;;;;;;43.92;29.23;;;27.40;51.60;;;;;;5114484;28;20231;-61
2021/08/09 10:23:37;;;;;;;43.33;32.72;;;27.30;52.10;;;;;;5114161;28;20042;-62
2021/08/09 10:26:09;;;;;;;17.23;10.43;;;27.40;52.00;;;;;;5115316;28;20490;-62
2021/08/09 10:28:54;;;;;;;29.13;24.10;;;27.40;51.40;;;;;;5114814;28;20039;-61
2021/08/09 10:31:25;;;;;;;11.63;9.02;;;27.30;50.70;;;;;;5114499;28;20070;-61
2021/08/09 10:33:53;;;;;;;18.88;15.50;;;27.30;50.70;;;;;;5115148;28;20032;-61
2021/08/09 10:36:21;;;;;;;14.70;10.95;;;27.30;50.40;;;;;;5114023;28;20039;-61
2021/08/09 10:38:49;;;;;;;19.50;13.52;;;27.40;50.70;;;;;;5114622;28;20036;-61
2021/08/09 10:41:16;;;;;;;12.85;10.35;;;27.40;51.60;;;;;;5113350;28;20019;-61
2021/08/09 10:44:04;;;;;;;8.80;4.70;;;27.40;52.00;;;;;;5113329;28;20054;-61
2021/08/09 10:46:37;;;;;;;16.08;12.73;;;27.40;52.40;;;;;;5114588;28;20027;-62
2021/08/09 10:49:08;;;;;;;15.45;7.32;;;27.40;52.50;;;;;;5113165;28;20048;-62
2021/08/09 10:51:52;;;;;;;15.30;9.23;;;27.40;52.10;;;;;;5114752;28;20024;-62
2021/08/09 10:54:28;;;;;;;8.18;4.35;;;27.50;52.60;;;;;;5114450;28;20050;-62
2021/08/09 10:56:56;;;;;;;17.17;5.13;;;27.40;52.80;;;;;;5111938;28;20043;-62
2021/08/09 10:59:40;;;;;;;7.82;4.07;;;27.40;53.00;;;;;;5114483;28;20032;-62
2021/08/09 11:02:34;;;;;;;8.73;4.82;;;27.50;53.00;;;;;;5113729;28;20426;-62
2021/08/09 11:05:15;;;;;;;5.70;4.18;;;27.50;53.00;;;;;;5113122;28;20054;-60
2021/08/09 11:07:43;;;;;;;8.10;4.00;;;27.60;53.00;;;;;;5113891;28;20023;-61
2021/08/09 11:10:10;;;;;;;12.25;5.68;;;27.60;53.50;;;;;;5113369;28;20046;-61
2021/08/09 11:12:59;;;;;;;9.15;4.25;;;27.50;53.50;;;;;;5112877;28;20031;-61
2021/08/09 11:15:27;;;;;;;7.88;4.57;;;27.60;53.70;;;;;;5114130;28;20098;-61
2021/08/09 11:17:56;;;;;;;7.60;3.70;;;27.60;54.00;;;;;;5112721;28;20039;-61
2021/08/09 11:20:34;;;;;;;8.10;4.70;;;27.60;53.70;;;;;;5113825;28;20032;-61
2021/08/09 11:23:08;;;;;;;17.33;4.78;;;27.80;53.20;;;;;;5113123;28;20368;-61
2021/08/09 11:25:47;;;;;;;5.70;4.20;;;27.80;53.40;;;;;;5114024;28;20039;-61
2021/08/09 11:28:24;;;;;;;8.35;4.65;;;27.80;53.50;;;;;;5113555;28;20020;-60
2021/08/09 11:30:51;;;;;;;6.35;4.03;;;27.80;53.90;;;;;;5113647;28;20407;-62
2021/08/09 11:33:27;;;;;;;8.57;4.07;;;27.80;53.60;;;;;;5112227;28;20027;-62
2021/08/09 11:36:00;;;;;;;6.85;3.88;;;27.90;53.30;;;;;;5113224;28;20043;-63
2021/08/09 11:38:28;;;;;;;5.40;3.67;;;27.90;51.00;;;;;;5112539;28;20494;-63
2021/08/09 11:41:03;;;;;;;5.07;3.30;;;27.90;51.70;;;;;;5112811;28;20027;-63
2021/08/09 11:43:30;;;;;;;6.25;3.70;;;28.00;52.20;;;;;;5113678;28;20035;-63
2021/08/09 11:46:13;;;;;;;6.57;3.83;;;28.00;50.90;;;;;;5113501;28;20032;-63
2021/08/09 11:48:45;;;;;;;9.27;3.78;;;27.90;52.60;;;;;;5112706;28;20050;-65
2021/08/09 11:51:15;;;;;;;6.93;3.45;;;27.90;53.10;;;;;;5110915;28;20032;-60
2021/08/09 11:53:46;;;;;;;15.25;4.72;;;27.90;53.60;;;;;;5113189;28;20043;-61
2021/08/09 11:56:17;;;;;;;7.82;3.60;;;27.90;53.20;;;;;;5111946;28;20062;-61
2021/08/09 11:58:44;;;;;;;6.43;4.30;;;28.00;53.30;;;;;;5113372;28;20043;-61
2021/08/09 12:01:35;;;;;;;6.50;3.85;;;28.20;53.00;;;;;;5111867;28;20019;-62
2021/08/09 12:04:13;;;;;;;4.63;3.78;;;28.20;52.10;;;;;;5111227;28;20039;-59
2021/08/09 12:06:50;;;;;;;7.57;3.70;;;28.30;52.20;;;;;;5113144;28;20027;-60
2021/08/09 12:09:24;;;;;;;11.48;5.78;;;28.50;51.10;;;;;;5112554;28;20032;-59
2021/08/09 12:11:58;;;;;;;10.13;4.45;;;28.40;50.80;;;;;;5111571;28;20042;-60
2021/08/09 12:14:24;;;;;;;15.13;9.93;;;28.40;50.70;;;;;;5113183;28;20039;-59
2021/08/09 12:16:53;;;;;;;12.00;9.48;;;28.50;51.20;;;;;;5112878;28;20040;-59
2021/08/09 12:19:50;;;;;;;6.45;4.13;;;28.40;51.40;;;;;;5112570;28;20059;-60
2021/08/09 12:22:30;;;;;;;9.10;5.60;;;28.40;50.90;;;;;;5102352;28;20039;-60
2021/08/09 12:25:15;;;;;;;5.45;3.78;;;28.40;51.40;;;;;;5112243;28;20031;-60
2021/08/09 12:27:42;;;;;;;6.00;4.32;;;28.40;51.00;;;;;;5105441;28;20024;-60
2021/08/09 12:30:15;;;;;;;6.30;3.50;;;28.40;50.50;;;;;;5091244;28;20047;-60
2021/08/09 12:32:42;;;;;;;5.55;4.00;;;28.50;50.50;;;;;;5091724;28;20472;-61
2021/08/09 12:35:12;;;;;;;9.02;3.92;;;28.60;50.70;;;;;;5091737;28;20048;-60
2021/08/09 12:37:39;;;;;;;5.25;4.28;;;28.60;51.20;;;;;;5091377;28;20029;-60
2021/08/09 12:40:13;;;;;;;6.72;4.20;;;28.60;51.60;;;;;;5099118;28;20051;-59
2021/08/09 12:42:42;;;;;;;4.85;3.47;;;28.60;52.00;;;;;;5092255;28;20460;-61
2021/08/09 12:45:11;;;;;;;5.38;3.92;;;28.70;52.10;;;;;;5092467;28;20031;-61
2021/08/09 12:47:38;;;;;;;9.63;5.07;;;28.70;52.10;;;;;;5090355;28;20590;-60
2021/08/09 12:50:08;;;;;;;5.15;3.70;;;28.70;51.60;;;;;;5092277;28;20047;-60
2021/08/09 12:52:38;;;;;;;6.38;3.78;;;28.60;51.60;;;;;;5091625;28;20036;-60
2021/08/09 12:55:07;;;;;;;7.60;3.70;;;28.60;51.40;;;;;;5089477;28;20413;-61
2021/08/09 12:57:36;;;;;;;5.32;3.85;;;28.60;51.00;;;;;;5088315;28;20463;-60
2021/08/09 13:00:05;;;;;;;6.05;3.95;;;28.60;51.10;;;;;;5090587;28;20052;-60